Time;durP1;ratioP1;P1;durP2;ratioP2;P2;SDS_P1;SDS_P2;PMS_P1;PMS_P2;Temp;Humidity;BMP_temperature;BMP_pressure;BME280_temperature;BME280_humidity;BME280_pressure;Samples;Min_cycle;Max_cycle;Signal;HPM_P1;HPM_P2
2023/10/18 00:01:29;;;;;;;14.93;8.63;;;;;;;-146.27;62.48;83119.47;5024841;28;20029;-69
2023/10/18 00:03:56;;;;;;;12.77;7.97;;;;;;;-146.27;61.40;83103.41;5029918;28;20030;-69
2023/10/18 00:06:23;;;;;;;12.77;8.15;;;;;;;-146.27;61.29;83065.22;5014594;28;20482;-69
2023/10/18 00:08:58;;;;;;;15.70;9.50;;;;;;;-146.27;61.46;83113.44;5026708;28;20430;-69
2023/10/18 00:11:27;;;;;;;15.77;9.90;;;;;;;-146.27;61.00;83081.31;5022167;28;20423;-69
2023/10/18 00:13:53;;;;;;;16.88;8.98;;;;;;;-146.27;61.12;83065.22;5019837;28;20095;-69
2023/10/18 00:16:24;;;;;;;11.82;8.40;;;;;;;-146.27;61.21;83113.44;5016637;28;20053;-68
2023/10/18 00:18:49;;;;;;;14.18;9.20;;;;;;;-146.27;62.03;83153.63;5031293;28;20053;-67
2023/10/18 00:21:15;;;;;;;12.10;8.68;;;;;;;-146.27;62.37;83139.56;5021461;28;20560;-66
2023/10/18 00:23:40;;;;;;;11.63;8.90;;;;;;;-146.27;61.28;83085.31;5029878;28;20021;-67
2023/10/18 00:26:11;;;;;;;13.85;8.70;;;;;;;-146.27;60.82;83151.63;5016822;28;20052;-67
2023/10/18 00:28:36;;;;;;;15.10;8.88;;;;;;;-146.27;61.70;83123.50;5022662;28;20564;-67
2023/10/18 00:31:20;;;;;;;11.65;8.48;;;;;;;-146.27;61.35;83117.47;5012649;28;20033;-66
2023/10/18 00:33:46;;;;;;;13.43;9.18;;;;;;;-146.27;61.28;83093.34;5026896;28;20116;-67
2023/10/18 00:36:12;;;;;;;12.43;8.65;;;;;;;-146.27;61.76;83111.44;5014372;28;20168;-67
2023/10/18 00:38:41;;;;;;;12.55;8.65;;;;;;;-146.27;61.32;83121.47;5011759;28;20022;-66
2023/10/18 00:41:14;;;;;;;14.88;9.00;;;;;;;-146.27;60.06;83067.25;5025946;28;20533;-66
2023/10/18 00:43:44;;;;;;;16.77;8.98;;;;;;;-146.27;61.12;83105.41;5028266;28;20105;-66
2023/10/18 00:46:10;;;;;;;13.80;8.63;;;;;;;-146.27;61.26;83177.75;5026436;28;20121;-66
2023/10/18 00:48:35;;;;;;;14.80;9.80;;;;;;;-146.27;60.96;83149.63;5028832;28;20055;-66
2023/10/18 00:51:01;;;;;;;16.70;8.98;;;;;;;-146.27;60.56;83105.41;5024949;28;20083;-67
2023/10/18 00:53:30;;;;;;;15.80;9.23;;;;;;;-146.27;61.20;83155.63;5013685;28;20366;-66
2023/10/18 00:55:59;;;;;;;13.25;9.00;;;;;;;-146.27;61.01;83147.59;5024073;28;20040;-66
2023/10/18 00:58:27;;;;;;;14.57;8.43;;;;;;;-146.27;61.38;83109.44;5017315;28;20071;-67
2023/10/18 01:00:53;;;;;;;14.50;9.25;;;;;;;-146.27;61.60;83123.50;5020760;28;20067;-66
2023/10/18 01:03:28;;;;;;;13.75;8.70;;;;;;;-146.27;61.04;83119.47;5023638;28;20029;-66
2023/10/18 01:06:00;;;;;;;15.32;9.30;;;;;;;-146.27;61.80;83163.69;5023048;28;20536;-67
2023/10/18 01:08:29;;;;;;;16.65;8.23;;;;;;;-146.27;60.36;83133.53;5022731;28;20033;-66
2023/10/18 01:11:03;;;;;;;13.38;8.73;;;;;;;-146.27;60.92;83123.50;5022684;28;20026;-66
2023/10/18 01:13:29;;;;;;;14.38;9.30;;;;;;;-146.27;61.25;83151.63;5019860;28;20112;-69
2023/10/18 01:15:56;;;;;;;14.38;8.75;;;;;;;-146.27;60.77;83123.50;5011781;28;20211;-67
2023/10/18 01:18:21;;;;;;;13.85;8.07;;;;;;;-146.27;60.22;83103.41;5024747;28;20113;-67
2023/10/18 01:20:47;;;;;;;14.75;8.85;;;;;;;-146.27;59.84;83171.72;5029517;28;20167;-66
2023/10/18 01:23:14;;;;;;;10.48;7.07;;;;;;;-146.27;59.64;83087.31;5025379;28;20091;-66
2023/10/18 01:25:39;;;;;;;13.43;8.20;;;;;;;-146.27;59.47;83085.31;5018473;28;20026;-67
2023/10/18 01:28:07;;;;;;;11.35;8.25;;;;;;;-146.27;60.40;83135.53;5021536;28;20014;-67
2023/10/18 01:30:33;;;;;;;14.38;8.35;;;;;;;-146.27;59.77;83107.41;5023186;28;20037;-66
2023/10/18 01:33:01;;;;;;;11.48;8.10;;;;;;;-146.27;60.45;83183.78;5013158;28;20497;-66
2023/10/18 01:35:26;;;;;;;14.60;7.95;;;;;;;-146.27;59.84;83151.63;5016954;28;20029;-66
2023/10/18 01:37:53;;;;;;;13.38;9.43;;;;;;;-146.27;59.55;83141.56;5022893;28;20017;-66
2023/10/18 01:40:21;;;;;;;11.95;8.15;;;;;;;-146.27;59.23;83109.44;5027364;28;20055;-66
2023/10/18 01:42:50;;;;;;;14.80;8.02;;;;;;;-146.27;59.51;83125.50;5019575;28;20026;-66
2023/10/18 01:45:21;;;;;;;14.77;8.60;;;;;;;-146.27;60.27;83201.84;5013420;28;20147;-66
2023/10/18 01:47:48;;;;;;;13.60;8.80;;;;;;;-146.27;59.58;83101.38;5022853;28;20021;-66
2023/10/18 01:50:14;;;;;;;13.88;8.60;;;;;;;-146.27;59.11;83119.47;5024847;28;20045;-67
2023/10/18 01:52:41;;;;;;;14.45;8.07;;;;;;;-146.27;58.64;83101.38;5019217;28;20022;-66
2023/10/18 01:55:09;;;;;;;13.55;8.13;;;;;;;-146.27;59.42;83115.47;5015447;28;20065;-66
2023/10/18 01:57:34;;;;;;;13.98;8.90;;;;;;;-146.27;58.77;83073.25;5014344;28;20483;-66
2023/10/18 02:00:00;;;;;;;16.73;9.45;;;;;;;-146.27;59.50;83151.63;5014674;28;20021;-66
2023/10/18 02:02:25;;;;;;;13.25;8.63;;;;;;;-146.27;60.23;83153.63;5018447;28;20481;-67
2023/10/18 02:04:53;;;;;;;12.70;8.18;;;;;;;-146.27;58.51;83075.28;5016254;28;20028;-66
2023/10/18 02:07:19;;;;;;;11.82;8.55;;;;;;;-146.27;58.58;83111.44;5026472;28;20046;-66
2023/10/18 02:09:57;;;;;;;13.63;8.05;;;;;;;-146.27;59.09;83099.38;5028308;28;20399;-66
2023/10/18 02:12:22;;;;;;;12.15;7.72;;;;;;;-146.27;59.83;83169.69;5033894;28;20033;-66
2023/10/18 02:14:49;;;;;;;19.05;8.40;;;;;;;-146.27;59.98;83139.56;5021659;28;20648;-67
2023/10/18 02:17:18;;;;;;;16.67;8.50;;;;;;;-146.27;58.88;83099.38;5022541;28;20033;-66
2023/10/18 02:19:44;;;;;;;11.50;7.95;;;;;;;-146.27;58.83;83125.50;5024413;28;20031;-66
2023/10/18 02:22:13;;;;;;;12.45;8.55;;;;;;;-146.27;59.42;83179.75;5014455;28;20397;-67
2023/10/18 02:24:38;;;;;;;12.63;8.00;;;;;;;-146.27;58.00;83105.41;5028040;28;20043;-66
2023/10/18 02:27:08;;;;;;;14.73;8.32;;;;;;;-146.27;58.51;83107.41;5028870;28;20477;-67
2023/10/18 02:29:39;;;;;;;14.75;8.43;;;;;;;-146.27;58.56;83139.56;5031074;28;20025;-67
2023/10/18 02:32:21;;;;;;;15.48;8.50;;;;;;;-146.27;58.63;83135.53;5018546;28;20114;-66
2023/10/18 02:34:47;;;;;;;16.52;8.65;;;;;;;-146.27;58.86;83147.59;5014138;28;20385;-67
2023/10/18 02:37:15;;;;;;;18.23;9.00;;;;;;;-146.27;58.74;83175.72;5026088;28;20030;-66
2023/10/18 02:39:41;;;;;;;12.73;8.45;;;;;;;-146.27;59.62;83215.91;5030614;28;20083;-67
2023/10/18 02:42:07;;;;;;;10.32;7.45;;;;;;;-146.27;58.83;83153.63;5026733;28;20474;-66
2023/10/18 02:44:34;;;;;;;11.93;7.95;;;;;;;-146.27;58.79;83161.66;5025992;28;20064;-66
2023/10/18 02:47:22;;;;;;;21.17;8.57;;;;;;;-146.27;58.86;83171.72;5018025;28;20113;-67
2023/10/18 02:49:51;;;;;;;13.18;8.15;;;;;;;-146.27;58.02;83115.47;5025750;28;20022;-67
2023/10/18 02:52:19;;;;;;;13.48;8.13;;;;;;;-146.27;58.08;83117.47;5027698;28;20052;-66
2023/10/18 02:54:48;;;;;;;11.20;7.88;;;;;;;-146.27;58.05;83139.56;5028637;28;20032;-66
2023/10/18 02:57:14;;;;;;;13.55;8.02;;;;;;;-146.27;57.76;83091.34;5016369;28;20033;-66
2023/10/18 02:59:43;;;;;;;12.48;7.32;;;;;;;-146.27;57.78;83123.50;5025259;28;20083;-66
2023/10/18 03:02:15;;;;;;;11.93;7.43;;;;;;;-146.27;57.37;83071.25;5023442;28;20489;-66
2023/10/18 03:04:42;;;;;;;11.02;7.53;;;;;;;-146.27;57.83;83135.53;5023460;28;21065;-66
2023/10/18 03:07:13;;;;;;;12.93;8.40;;;;;;;-146.27;57.85;83153.63;5022054;28;20033;-66
2023/10/18 03:09:39;;;;;;;16.88;7.65;;;;;;;-146.27;57.42;83131.53;5023548;28;20028;-66
2023/10/18 03:12:15;;;;;;;13.25;7.60;;;;;;;-146.27;57.81;83123.50;5031103;28;20030;-66
2023/10/18 03:14:48;;;;;;;14.77;8.52;;;;;;;-146.27;57.80;83111.44;5027142;28;20083;-67
2023/10/18 03:17:35;;;;;;;15.52;8.45;;;;;;;-146.27;57.55;83115.47;5020679;28;20037;-66
2023/10/18 03:20:03;;;;;;;12.98;7.40;;;;;;;-146.27;57.33;83169.69;5020401;28;20033;-66
2023/10/18 03:22:31;;;;;;;11.10;7.47;;;;;;;-146.27;56.75;83155.63;5024807;28;20643;-66
2023/10/18 03:25:01;;;;;;;12.05;7.30;;;;;;;-146.27;56.12;83051.16;5028338;28;20029;-66
2023/10/18 03:27:29;;;;;;;12.90;7.40;;;;;;;-146.27;56.15;83111.44;5022526;28;20044;-66
2023/10/18 03:29:58;;;;;;;11.98;7.03;;;;;;;-146.27;55.30;83047.16;5028135;28;20104;-66
2023/10/18 03:32:24;;;;;;;16.92;7.05;;;;;;;-146.27;55.11;83055.19;5030524;28;20397;-67
2023/10/18 03:34:52;;;;;;;12.75;6.80;;;;;;;-146.27;55.02;83047.16;5019082;28;20147;-67
2023/10/18 03:37:21;;;;;;;13.20;7.68;;;;;;;-146.27;55.36;83057.19;5020010;28;20148;-66
2023/10/18 03:39:52;;;;;;;10.93;7.10;;;;;;;-146.27;55.14;83043.13;5024834;28;20029;-68
2023/10/18 03:42:30;;;;;;;11.15;7.15;;;;;;;-146.27;55.66;83085.31;5020040;28;20022;-67
2023/10/18 03:45:11;;;;;;;11.38;7.20;;;;;;;-146.27;54.90;83017.00;5020676;28;20028;-67
2023/10/18 03:47:38;;;;;;;9.90;7.00;;;;;;;-146.27;55.73;83123.50;5014202;28;20391;-67
2023/10/18 03:50:12;;;;;;;11.80;7.22;;;;;;;-146.27;55.68;83075.28;5022942;28;20025;-66
2023/10/18 03:52:38;;;;;;;15.30;7.40;;;;;;;-146.27;54.66;83071.25;5029526;28;20068;-66
2023/10/18 03:57:29;;;;;;;12.32;6.63;;;;;;;-146.27;54.22;83059.19;5017821;28;20045;-66
2023/10/18 03:59:58;;;;;;;12.02;6.80;;;;;;;-146.27;54.69;83051.16;5019288;28;20120;-67
2023/10/18 04:02:27;;;;;;;10.07;6.57;;;;;;;-146.27;54.14;83043.13;5027672;28;20462;-65
2023/10/18 04:05:00;;;;;;;12.02;7.22;;;;;;;-146.27;53.79;83004.94;5019784;28;20033;-67
2023/10/18 04:07:26;;;;;;;10.35;6.65;;;;;;;-146.27;53.78;83051.16;5014035;28;20025;-67
2023/10/18 04:09:53;;;;;;;10.68;6.47;;;;;;;-146.27;53.91;83067.25;5017118;28;20069;-68
2023/10/18 04:12:21;;;;;;;12.40;6.47;;;;;;;-146.27;52.87;82990.88;5028916;28;20029;-68
2023/10/18 04:14:52;;;;;;;9.73;6.25;;;;;;;-146.27;53.32;83103.41;5025619;28;20485;-67
2023/10/18 04:17:32;;;;;;;9.57;6.07;;;;;;;-146.27;53.74;83083.31;5028502;28;20448;-67
2023/10/18 04:20:07;;;;;;;11.90;6.45;;;;;;;-146.27;53.62;83059.19;5024124;28;20104;-66
2023/10/18 04:22:33;;;;;;;10.02;6.60;;;;;;;-146.27;52.76;83008.97;5019621;28;20374;-67
2023/10/18 04:24:58;;;;;;;10.45;6.35;;;;;;;-146.27;52.34;83008.97;5021657;28;20083;-66
2023/10/18 04:27:24;;;;;;;9.98;6.38;;;;;;;-146.27;52.51;83019.03;5015881;28;20026;-66
2023/10/18 04:29:55;;;;;;;9.15;6.13;;;;;;;-146.27;52.66;83037.09;5029298;28;20389;-67
2023/10/18 04:32:23;;;;;;;15.13;6.65;;;;;;;-146.27;52.60;83025.03;5012533;28;20026;-66
2023/10/18 04:34:48;;;;;;;11.05;6.45;;;;;;;-146.27;52.50;83000.94;5012812;28;20018;-67
2023/10/18 04:37:14;;;;;;;10.73;6.10;;;;;;;-146.27;53.05;83099.38;5031348;28;20033;-67
2023/10/18 04:39:40;;;;;;;9.88;6.22;;;;;;;-146.27;52.93;83041.13;5019588;28;20153;-67
2023/10/18 04:42:06;;;;;;;11.13;6.78;;;;;;;-146.27;52.84;83051.16;5018524;28;20029;-67
2023/10/18 04:44:36;;;;;;;12.95;6.57;;;;;;;-146.27;52.84;83027.06;5025569;28;20045;-66
2023/10/18 04:47:13;;;;;;;12.57;6.80;;;;;;;-146.27;52.39;83017.00;5027129;28;20021;-67
2023/10/18 04:49:39;;;;;;;9.98;5.90;;;;;;;-146.27;52.40;83031.06;5018900;28;20025;-66
2023/10/18 04:52:28;;;;;;;10.82;6.10;;;;;;;-146.27;52.05;82974.81;5017440;28;20032;-66
2023/10/18 04:55:08;;;;;;;9.60;6.07;;;;;;;-146.27;52.41;83000.94;5012141;28;20041;-66
2023/10/18 04:57:38;;;;;;;10.60;6.20;;;;;;;-146.27;53.15;83093.34;5014103;28;20072;-66
2023/10/18 05:00:24;;;;;;;8.85;6.00;;;;;;;-146.27;52.50;83015.00;5028964;28;20028;-68
2023/10/18 05:02:59;;;;;;;13.10;6.40;;;;;;;-146.27;52.73;83010.97;5012834;28;20072;-68
2023/10/18 05:05:28;;;;;;;9.98;6.13;;;;;;;-146.27;52.59;83063.22;5019667;28;20044;-68
2023/10/18 05:07:54;;;;;;;11.02;6.53;;;;;;;-146.27;52.00;82958.75;5019313;28;20500;-68
2023/10/18 05:10:21;;;;;;;11.73;6.43;;;;;;;-146.27;52.00;83004.94;5012293;28;20466;-68
2023/10/18 05:13:01;;;;;;;10.70;6.40;;;;;;;-146.27;52.79;83059.19;5022725;28;20517;-68
2023/10/18 05:15:29;;;;;;;10.25;6.13;;;;;;;-146.27;52.26;83025.03;5020597;28;20062;-68
2023/10/18 05:18:04;;;;;;;13.25;7.15;;;;;;;-146.27;52.36;83071.25;5023385;28;20087;-68
2023/10/18 05:20:42;;;;;;;11.52;6.50;;;;;;;-146.27;52.51;83015.00;5029517;28;20061;-68
2023/10/18 05:23:07;;;;;;;9.02;5.90;;;;;;;-146.27;52.49;83000.94;5028580;28;20021;-68
2023/10/18 05:25:45;;;;;;;12.15;7.35;;;;;;;-146.27;52.50;83067.25;5029699;28;20036;-68
2023/10/18 05:28:15;;;;;;;10.73;6.28;;;;;;;-146.27;52.11;83025.03;5027108;28;20105;-68
2023/10/18 05:43:54;;;;;;;9.15;5.97;;;;;;;-146.27;52.61;83015.00;5017357;28;20038;-69
2023/10/18 05:46:20;;;;;;;10.43;6.53;;;;;;;-146.27;52.88;83075.28;5027836;28;20017;-67
2023/10/18 05:48:46;;;;;;;10.23;6.60;;;;;;;-146.27;52.42;83079.28;5046121;28;20500;-68
2023/10/18 05:51:26;;;;;;;12.80;7.38;;;;;;;-146.27;53.68;83109.44;5032378;28;20033;-69
2023/10/18 05:53:59;;;;;;;12.85;7.53;;;;;;;-146.27;52.42;83059.19;5022086;28;20029;-68
2023/10/18 05:56:30;;;;;;;10.32;6.65;;;;;;;-146.27;51.88;83051.16;5023071;28;20543;-68
2023/10/18 06:01:40;;;;;;;13.68;6.65;;;;;;;-146.27;52.44;83077.28;5018303;28;20037;-68
2023/10/18 06:04:05;;;;;;;11.40;6.70;;;;;;;-146.27;52.57;83031.06;5025945;28;20199;-68
2023/10/18 06:06:31;;;;;;;10.00;6.68;;;;;;;-146.27;53.08;83095.38;5026668;28;20065;-68
2023/10/18 06:08:57;;;;;;;17.50;6.63;;;;;;;-146.27;52.00;82986.88;5033286;28;20093;-66
2023/10/18 06:11:23;;;;;;;13.32;7.00;;;;;;;-146.27;51.74;83029.06;5022622;28;20028;-66
2023/10/18 06:13:49;;;;;;;10.40;6.70;;;;;;;-146.27;51.38;82978.84;5025939;28;20029;-66
2023/10/18 06:16:20;;;;;;;11.32;7.00;;;;;;;-146.27;51.18;83041.13;5022889;28;20046;-67
2023/10/18 06:18:49;;;;;;;8.95;6.40;;;;;;;-146.27;51.58;83025.03;5028911;28;20042;-68
2023/10/18 06:21:20;;;;;;;16.33;6.53;;;;;;;-146.27;51.21;83023.03;5028779;28;20533;-68
2023/10/18 06:23:55;;;;;;;11.65;6.50;;;;;;;-146.27;51.97;83065.22;5025043;28;20116;-68
2023/10/18 06:26:28;;;;;;;11.57;6.50;;;;;;;-146.27;51.33;83059.19;5017822;28;20034;-69
2023/10/18 06:29:22;;;;;;;11.52;6.30;;;;;;;-146.27;51.39;83055.19;5033555;28;20104;-67
2023/10/18 06:31:49;;;;;;;11.30;6.40;;;;;;;-146.27;50.84;82994.91;5022349;28;20025;-69
2023/10/18 06:34:17;;;;;;;13.70;6.57;;;;;;;-146.27;51.90;83083.31;5023698;28;20079;-68
2023/10/18 06:36:44;;;;;;;14.45;6.53;;;;;;;-146.27;50.95;82994.91;5020352;28;20417;-68
2023/10/18 06:39:24;;;;;;;10.75;6.75;;;;;;;-146.27;51.70;83043.13;5019348;28;20113;-68
2023/10/18 06:41:54;;;;;;;9.82;6.10;;;;;;;-146.27;50.98;83031.06;5023797;28;20059;-67
2023/10/18 06:44:19;;;;;;;10.93;6.57;;;;;;;-146.27;50.59;82990.88;5027808;28;20497;-67
2023/10/18 06:46:47;;;;;;;10.77;6.45;;;;;;;-146.27;51.21;83008.97;5029077;28;20041;-68
2023/10/18 06:49:13;;;;;;;10.43;6.20;;;;;;;-146.27;50.50;82992.91;5017340;28;20410;-67
2023/10/18 06:51:43;;;;;;;10.40;6.20;;;;;;;-146.27;51.40;83039.09;5022953;28;20025;-67
2023/10/18 06:54:14;;;;;;;11.15;6.35;;;;;;;-146.27;50.48;82996.91;5036000;28;20545;-67
2023/10/18 06:56:45;;;;;;;10.95;6.65;;;;;;;-146.27;50.84;83095.38;5029320;28;20048;-67
2023/10/18 06:59:11;;;;;;;9.05;5.75;;;;;;;-146.27;50.65;82966.78;5031164;28;20048;-69
2023/10/18 07:01:55;;;;;;;10.27;6.25;;;;;;;-146.27;50.33;82964.78;5037598;28;20063;-67
2023/10/18 07:04:27;;;;;;;9.32;6.28;;;;;;;-146.27;50.82;83010.97;5028855;28;20033;-71
2023/10/18 07:06:57;;;;;;;12.98;6.45;;;;;;;-146.27;50.69;83021.03;5028044;28;20025;-70
2023/10/18 07:09:25;;;;;;;11.30;6.90;;;;;;;-146.27;50.36;83002.94;5030829;28;20028;-72
2023/10/18 07:11:57;;;;;;;10.38;6.35;;;;;;;-146.27;50.05;82966.78;5030175;28;20029;-71
2023/10/18 07:14:24;;;;;;;10.55;5.82;;;;;;;-146.27;49.74;82976.81;5027504;28;20034;-70
2023/10/18 07:16:56;;;;;;;9.45;6.13;;;;;;;-146.27;49.94;82976.81;5031150;28;20047;-69
2023/10/18 07:21:50;;;;;;;9.82;6.20;;;;;;;-146.27;50.61;82970.81;5019792;28;20057;-73
2023/10/18 07:24:17;;;;;;;15.45;6.95;;;;;;;-146.27;50.51;82978.84;5022308;28;20504;-72
2023/10/18 07:26:43;;;;;;;11.32;6.75;;;;;;;-146.27;50.83;83039.09;5024530;28;20148;-73
2023/10/18 07:29:09;;;;;;;10.13;6.13;;;;;;;-146.27;50.21;82918.56;5013241;28;20068;-73
2023/10/18 07:31:46;;;;;;;11.90;6.32;;;;;;;-146.27;50.36;82968.78;5012414;28;20461;-72
2023/10/18 07:34:19;;;;;;;9.32;6.55;;;;;;;-146.27;50.23;82920.56;5012486;28;20049;-71
2023/10/18 07:36:47;;;;;;;15.10;6.82;;;;;;;-146.27;50.29;82948.69;5014834;28;20040;-72
2023/10/18 07:39:16;;;;;;;9.15;6.30;;;;;;;-146.27;49.85;83008.97;5031040;28;20075;-70
2023/10/18 07:41:44;;;;;;;13.52;6.18;;;;;;;-146.27;50.26;82944.69;5022310;28;20111;-70
2023/10/18 07:44:09;;;;;;;9.93;6.38;;;;;;;-146.27;49.52;82946.69;5022356;28;20062;-71
2023/10/18 07:46:39;;;;;;;11.43;5.93;;;;;;;-146.27;50.50;82944.69;5030456;28;20488;-72
2023/10/18 07:49:14;;;;;;;11.93;6.60;;;;;;;-146.27;49.54;82874.38;5025476;28;20029;-71
2023/10/18 07:51:48;;;;;;;8.63;5.70;;;;;;;-146.27;50.05;82892.44;5031899;28;20037;-71
2023/10/18 07:54:14;;;;;;;;;;;;;;;-146.27;49.47;82826.16;5032385;28;20029;-71
2023/10/18 07:56:48;;;;;;;10.93;5.88;;;;;;;-146.27;48.87;82844.22;5030381;28;19913;-71
2023/10/18 07:59:27;;;;;;;12.23;6.93;;;;;;;-146.27;49.37;82914.53;5012675;28;20121;-71
2023/10/18 08:02:07;;;;;;;10.13;5.78;;;;;;;-146.27;49.47;82904.50;5029093;28;20112;-71
2023/10/18 08:04:34;;;;;;;10.55;5.35;;;;;;;-146.27;48.28;82822.13;5029800;28;20033;-68
2023/10/18 08:07:00;;;;;;;9.55;6.00;;;;;;;-146.27;48.01;82789.97;5024667;28;20397;-67
2023/10/18 08:09:29;;;;;;;9.13;5.40;;;;;;;-146.27;48.62;82882.41;5016283;28;20096;-67
2023/10/18 08:12:06;;;;;;;8.18;5.55;;;;;;;-146.27;48.72;82836.19;5021021;28;20017;-67
2023/10/18 08:14:32;;;;;;;8.85;5.63;;;;;;;-146.27;48.73;82878.38;5027563;28;20043;-68
2023/10/18 08:16:58;;;;;;;11.50;5.63;;;;;;;-146.27;48.50;82846.25;5015426;28;20097;-73
2023/10/18 08:19:24;;;;;;;9.63;5.30;;;;;;;-146.27;48.26;82836.19;5019856;28;20057;-72
2023/10/18 08:24:38;;;;;;;10.23;5.45;;;;;;;-146.27;47.00;82685.50;5045832;28;20493;-71
2023/10/18 08:27:09;;;;;;;8.23;6.07;;;;;;;-146.27;47.51;82751.81;5020386;28;20533;-72
2023/10/18 08:29:36;;;;;;;7.05;5.25;;;;;;;-146.27;47.14;82689.53;5015209;28;20087;-72
2023/10/18 08:32:14;;;;;;;9.90;5.75;;;;;;;-146.27;47.23;82699.59;5027851;28;20039;-71
2023/10/18 08:34:40;;;;;;;8.95;5.53;;;;;;;-146.27;46.57;82685.50;5028090;28;20036;-71
2023/10/18 08:37:06;;;;;;;6.60;5.50;;;;;;;-146.27;46.40;82693.56;5011275;28;20056;-72
2023/10/18 08:39:32;;;;;;;9.13;5.20;;;;;;;-146.27;46.06;82629.28;5024027;28;20105;-71
2023/10/18 08:42:08;;;;;;;8.82;5.78;;;;;;;-146.27;45.65;82651.38;5022455;28;20133;-72
2023/10/18 08:44:35;;;;;;;8.30;5.97;;;;;;;-146.27;45.50;82569.00;5021359;28;20025;-71
2023/10/18 08:49:53;;;;;;;8.20;5.25;;;;;;;-146.27;45.93;82681.50;5024111;28;20124;-72
2023/10/18 08:52:20;;;;;;;7.95;4.88;;;;;;;-146.27;45.99;82689.53;5028211;28;20484;-72
2023/10/18 08:54:48;;;;;;;12.15;5.30;;;;;;;-146.27;45.53;82550.91;5030234;28;20048;-71
2023/10/18 08:57:24;;;;;;;13.38;5.20;;;;;;;-146.27;45.40;82589.09;5020860;28;20041;-72
2023/10/18 08:59:53;;;;;;;8.27;5.43;;;;;;;-146.27;45.48;82560.97;5012812;28;20752;-71
2023/10/18 09:02:23;;;;;;;10.65;5.10;;;;;;;-146.27;44.91;82532.84;5016127;28;20032;-72
2023/10/18 09:04:52;;;;;;;10.00;5.85;;;;;;;-146.27;44.98;82542.88;5031673;28;20585;-71
2023/10/18 09:07:22;;;;;;;7.18;5.00;;;;;;;-146.27;44.25;82528.81;5013479;28;20386;-71
2023/10/18 09:09:57;;;;;;;8.90;5.68;;;;;;;-146.27;44.23;82516.78;5013264;28;20021;-73
2023/10/18 09:12:36;;;;;;;10.63;5.03;;;;;;;-146.27;44.14;82510.75;5011272;28;20124;-70
2023/10/18 09:15:26;;;;;;;9.43;5.03;;;;;;;-146.27;44.48;82560.97;5015141;28;20140;-71
2023/10/18 09:17:54;;;;;;;8.25;4.75;;;;;;;-146.27;44.23;82492.66;5023659;28;20033;-71
2023/10/18 09:20:25;;;;;;;10.80;5.63;;;;;;;-146.27;44.41;82436.41;5023114;28;20040;-72
2023/10/18 09:22:50;;;;;;;7.13;4.95;;;;;;;-146.27;44.10;82474.59;5024748;28;20029;-72
2023/10/18 09:25:16;;;;;;;10.80;4.95;;;;;;;-146.27;43.99;82526.81;5020617;28;20509;-72
2023/10/18 09:27:41;;;;;;;7.05;4.78;;;;;;;-146.27;43.69;82520.78;5025870;28;20026;-72
2023/10/18 09:30:13;;;;;;;6.65;5.00;;;;;;;-146.27;43.74;82484.63;5010864;28;20510;-71
2023/10/18 09:32:39;;;;;;;7.57;4.97;;;;;;;-146.27;43.63;82460.53;5015565;28;20485;-72
2023/10/18 09:35:07;;;;;;;7.68;4.97;;;;;;;-146.27;43.46;82524.81;5016598;28;20097;-71
2023/10/18 09:37:36;;;;;;;9.30;4.72;;;;;;;-146.27;43.40;82440.44;5029965;28;20107;-72
2023/10/18 09:40:06;;;;;;;12.05;5.70;;;;;;;-146.27;43.31;82446.47;5024349;28;20021;-72
2023/10/18 09:42:31;;;;;;;8.85;5.70;;;;;;;-146.27;43.22;82392.22;5017510;28;20443;-71
2023/10/18 09:44:57;;;;;;;8.50;5.63;;;;;;;-146.27;43.35;82490.66;5026523;28;20037;-71
2023/10/18 09:47:26;;;;;;;8.82;5.57;;;;;;;-146.27;43.57;82494.66;5010735;28;20029;-71
2023/10/18 09:49:55;;;;;;;8.20;5.68;;;;;;;-146.27;43.27;82440.44;5020759;28;20088;-70
2023/10/18 09:52:23;;;;;;;10.38;5.97;;;;;;;-146.27;44.06;82428.38;5010861;28;20034;-71
2023/10/18 09:54:51;;;;;;;9.02;6.13;;;;;;;-146.27;43.28;82372.13;5024141;28;20056;-71
2023/10/18 09:57:26;;;;;;;8.05;5.10;;;;;;;-146.27;43.37;82331.97;5020639;28;20045;-72
2023/10/18 09:59:55;;;;;;;10.98;5.85;;;;;;;-146.27;43.69;82317.91;5018788;28;20017;-71
2023/10/18 10:02:21;;;;;;;9.70;5.18;;;;;;;-146.27;42.69;82352.03;5028782;28;20072;-71
2023/10/18 10:04:52;;;;;;;10.52;5.43;;;;;;;-146.27;43.39;82259.66;5015468;28;20174;-71
2023/10/18 10:10:08;;;;;;;7.65;5.40;;;;;;;-146.27;42.98;82251.59;5022791;28;20032;-77
2023/10/18 10:12:34;;;;;;;8.93;4.97;;;;;;;-146.27;43.09;82187.31;5016027;28;20034;-69
2023/10/18 10:14:59;;;;;;;9.07;5.30;;;;;;;-146.27;42.95;82117.03;5027977;28;20037;-69
2023/10/18 10:17:28;;;;;;;8.05;5.18;;;;;;;-146.27;42.41;82076.84;5029379;28;20126;-69
2023/10/18 10:20:10;;;;;;;9.77;5.32;;;;;;;-146.27;42.28;82119.03;5018351;28;20048;-69
2023/10/18 10:22:41;;;;;;;7.78;5.68;;;;;;;-146.27;42.18;82090.91;5027784;28;20040;-68
2023/10/18 10:25:11;;;;;;;10.02;5.60;;;;;;;-146.27;42.36;82004.53;5028401;28;20437;-69
2023/10/18 10:32:55;;;;;;;10.13;4.93;;;;;;;-146.27;42.08;82018.59;5031383;28;20413;-69
2023/10/18 10:35:27;;;;;;;8.73;5.25;;;;;;;-146.27;41.89;82106.97;5015326;28;20034;-68
2023/10/18 10:37:52;;;;;;;9.93;5.10;;;;;;;-146.27;41.77;82074.84;5011991;28;20045;-68
2023/10/18 10:43:01;;;;;;;8.32;4.90;;;;;;;-146.27;41.23;81950.31;5019925;28;20124;-68
2023/10/18 10:45:37;;;;;;;9.48;5.40;;;;;;;-146.27;41.93;82106.97;5031270;28;20030;-68
2023/10/18 10:48:15;;;;;;;10.15;6.18;;;;;;;-146.27;41.55;82082.88;5017043;28;20057;-69
2023/10/18 10:50:51;;;;;;;13.23;6.03;;;;;;;-146.27;42.00;82056.75;5024725;28;20116;-68
2023/10/18 10:53:29;;;;;;;9.13;5.78;;;;;;;-146.27;42.07;81998.50;5019796;28;20041;-68
2023/10/18 10:55:55;;;;;;;12.70;5.55;;;;;;;-146.27;41.77;82000.53;5018946;28;20029;-72
2023/10/18 10:58:22;;;;;;;14.05;5.78;;;;;;;-146.27;41.57;82058.78;5028158;28;20402;-70
2023/10/18 11:01:31;;;;;;;9.77;5.82;;;;;;;-146.27;41.10;81942.28;5018728;28;20021;-68
2023/10/18 11:03:56;;;;;;;9.15;5.38;;;;;;;-146.27;40.83;81906.13;5019690;28;20583;-70
2023/10/18 11:06:23;;;;;;;7.57;5.05;;;;;;;-146.27;40.44;81892.06;5027716;28;20021;-70
2023/10/18 11:08:52;;;;;;;11.68;5.40;;;;;;;-146.27;40.17;81797.66;5023758;28;20501;-70
2023/10/18 11:11:21;;;;;;;5.88;4.75;;;;;;;-146.27;39.93;81598.81;5026022;28;20034;-69
2023/10/18 11:13:48;;;;;;;8.40;5.32;;;;;;;-146.27;40.11;81616.91;5030685;28;20206;-70
2023/10/18 11:16:17;;;;;;;10.25;4.88;;;;;;;-146.27;39.16;81472.28;5028395;28;20042;-69
2023/10/18 11:18:48;;;;;;;10.77;5.28;;;;;;;-146.27;39.24;81558.66;5030237;28;20037;-70
2023/10/18 11:21:29;;;;;;;6.88;4.97;;;;;;;-146.27;38.89;81476.31;5028085;28;20033;-69
2023/10/18 11:24:02;;;;;;;6.68;4.95;;;;;;;-146.27;38.71;81494.38;5020897;28;20025;-69
2023/10/18 11:26:28;;;;;;;7.60;5.15;;;;;;;-146.27;38.24;81416.06;5021924;28;20080;-68
2023/10/18 11:29:05;;;;;;;8.55;4.72;;;;;;;-146.27;38.79;81375.91;5018157;28;20052;-66
2023/10/18 11:31:31;;;;;;;7.70;4.90;;;;;;;-146.27;38.13;81391.97;5018043;28;20063;-66
2023/10/18 11:34:07;;;;;;;11.75;5.57;;;;;;;-146.27;38.11;81393.97;5033476;28;20085;-65
2023/10/18 11:36:35;;;;;;;9.30;4.97;;;;;;;-146.27;37.71;81275.47;5031390;28;20037;-65
2023/10/18 11:39:07;;;;;;;11.15;4.95;;;;;;;-146.27;37.25;81203.19;5029410;28;20401;-67
2023/10/18 11:41:37;;;;;;;8.23;4.23;;;;;;;-146.27;37.62;81233.31;5025336;28;20032;-68
2023/10/18 11:44:07;;;;;;;8.52;4.65;;;;;;;-146.27;37.83;81243.34;5017142;28;20796;-66
2023/10/18 11:46:46;;;;;;;6.70;4.80;;;;;;;-146.27;37.06;81062.59;5021287;28;20036;-67
2023/10/18 11:49:14;;;;;;;9.25;4.00;;;;;;;-146.27;37.34;81199.16;5014359;28;20124;-65
2023/10/18 11:51:45;;;;;;;8.07;4.70;;;;;;;-146.27;37.02;81118.84;5018732;28;20030;-67
2023/10/18 11:54:12;;;;;;;6.82;4.43;;;;;;;-146.27;36.70;81128.88;5025235;28;20028;-67
2023/10/18 11:56:38;;;;;;;7.00;4.70;;;;;;;-146.27;36.49;81134.91;5025353;28;20025;-66
2023/10/18 11:59:05;;;;;;;8.07;4.75;;;;;;;-146.27;36.65;81197.16;5025020;28;20038;-67
2023/10/18 12:01:33;;;;;;;8.00;5.38;;;;;;;-146.27;37.25;81106.78;5012282;28;20435;-67